<?xml version="1.0" encoding="UTF-8"?>
<gpx xmlns="http://www.topografix.com/GPX/1/1" xmlns:xsi="http://www.w3.org/2001/XMLSchema-instance" version="1.1" xsi:schemaLocation="http://www.topografix.com/GPX/1/1 http://www.topografix.com/GPX/1/1/gpx.xsd">
  <metadata>
    <name>Tweed Enduro Sprint Aquabike 2026</name>
  </metadata>
  <trk>
    <name>Tweed Enduro Sprint Aquabike 2026</name>
    <trkseg>
      <trkpt lat="-28.389333" lon="153.565381">
        <ele>2.448529</ele>
        <time>2026-02-14T08:00:00.000Z</time>
      </trkpt>
      <trkpt lat="-28.389551" lon="153.565353">
        <ele>2.448526</ele>
        <time>2026-02-14T08:00:02.000Z</time>
      </trkpt>
      <trkpt lat="-28.390077" lon="153.565282">
        <ele>2.448529</ele>
        <time>2026-02-14T08:00:08.000Z</time>
      </trkpt>
      <trkpt lat="-28.390707" lon="153.565291">
        <ele>2.223424</ele>
        <time>2026-02-14T08:00:15.000Z</time>
      </trkpt>
      <trkpt lat="-28.390894" lon="153.565357">
        <ele>2.132834</ele>
        <time>2026-02-14T08:00:17.000Z</time>
      </trkpt>
      <trkpt lat="-28.390943" lon="153.56543">
        <ele>2.09383</ele>
        <time>2026-02-14T08:00:18.000Z</time>
      </trkpt>
      <trkpt lat="-28.39101" lon="153.565435">
        <ele>2.057506</ele>
        <time>2026-02-14T08:00:19.000Z</time>
      </trkpt>
      <trkpt lat="-28.391199" lon="153.565574">
        <ele>1.948865</ele>
        <time>2026-02-14T08:00:22.000Z</time>
      </trkpt>
      <trkpt lat="-28.391455" lon="153.565882">
        <ele>1.776295</ele>
        <time>2026-02-14T08:00:26.000Z</time>
      </trkpt>
      <trkpt lat="-28.392202" lon="153.566722">
        <ele>2.186206</ele>
        <time>2026-02-14T08:00:38.000Z</time>
      </trkpt>
      <trkpt lat="-28.392269" lon="153.566811">
        <ele>2.27398</ele>
        <time>2026-02-14T08:00:39.000Z</time>
      </trkpt>
      <trkpt lat="-28.39259" lon="153.567089">
        <ele>2.609614</ele>
        <time>2026-02-14T08:00:43.000Z</time>
      </trkpt>
      <trkpt lat="-28.392993" lon="153.567217">
        <ele>2.979208</ele>
        <time>2026-02-14T08:00:48.000Z</time>
      </trkpt>
      <trkpt lat="-28.393348" lon="153.567205">
        <ele>3.199295</ele>
        <time>2026-02-14T08:00:52.000Z</time>
      </trkpt>
      <trkpt lat="-28.393815" lon="153.567088">
        <ele>3.372261</ele>
        <time>2026-02-14T08:00:57.000Z</time>
      </trkpt>
      <trkpt lat="-28.394358" lon="153.566889">
        <ele>3.578963</ele>
        <time>2026-02-14T08:01:03.000Z</time>
      </trkpt>
      <trkpt lat="-28.396383" lon="153.56622">
        <ele>3.29411</ele>
        <time>2026-02-14T08:01:26.000Z</time>
      </trkpt>
      <trkpt lat="-28.397511" lon="153.5659">
        <ele>2.943527</ele>
        <time>2026-02-14T08:01:39.000Z</time>
      </trkpt>
      <trkpt lat="-28.397543" lon="153.565896">
        <ele>2.937231</ele>
        <time>2026-02-14T08:01:39.000Z</time>
      </trkpt>
      <trkpt lat="-28.398491" lon="153.565645">
        <ele>2.670184</ele>
        <time>2026-02-14T08:01:50.000Z</time>
      </trkpt>
      <trkpt lat="-28.39902" lon="153.565519">
        <ele>2.632529</ele>
        <time>2026-02-14T08:01:56.000Z</time>
      </trkpt>
      <trkpt lat="-28.399295" lon="153.565446">
        <ele>2.612644</ele>
        <time>2026-02-14T08:01:59.000Z</time>
      </trkpt>
      <trkpt lat="-28.400987" lon="153.565017">
        <ele>2.561404</ele>
        <time>2026-02-14T08:02:18.000Z</time>
      </trkpt>
      <trkpt lat="-28.404417" lon="153.564144">
        <ele>2.547397</ele>
        <time>2026-02-14T08:02:57.000Z</time>
      </trkpt>
      <trkpt lat="-28.404977" lon="153.564029">
        <ele>2.566838</ele>
        <time>2026-02-14T08:03:03.000Z</time>
      </trkpt>
      <trkpt lat="-28.405578" lon="153.563963">
        <ele>2.595816</ele>
        <time>2026-02-14T08:03:10.000Z</time>
      </trkpt>
      <trkpt lat="-28.406246" lon="153.563928">
        <ele>2.6588</ele>
        <time>2026-02-14T08:03:17.000Z</time>
      </trkpt>
      <trkpt lat="-28.407536" lon="153.563766">
        <ele>2.712841</ele>
        <time>2026-02-14T08:03:31.000Z</time>
      </trkpt>
      <trkpt lat="-28.408647" lon="153.563673">
        <ele>2.569956</ele>
        <time>2026-02-14T08:03:43.000Z</time>
      </trkpt>
      <trkpt lat="-28.409483" lon="153.563557">
        <ele>2.567377</ele>
        <time>2026-02-14T08:03:52.000Z</time>
      </trkpt>
      <trkpt lat="-28.409686" lon="153.563539">
        <ele>2.585712</ele>
        <time>2026-02-14T08:03:54.000Z</time>
      </trkpt>
      <trkpt lat="-28.410934" lon="153.563189">
        <ele>2.741554</ele>
        <time>2026-02-14T08:04:08.000Z</time>
      </trkpt>
      <trkpt lat="-28.411643" lon="153.562985">
        <ele>2.991462</ele>
        <time>2026-02-14T08:04:16.000Z</time>
      </trkpt>
      <trkpt lat="-28.411753" lon="153.562967">
        <ele>3.026133</ele>
        <time>2026-02-14T08:04:17.000Z</time>
      </trkpt>
      <trkpt lat="-28.411886" lon="153.562925">
        <ele>3.074069</ele>
        <time>2026-02-14T08:04:19.000Z</time>
      </trkpt>
      <trkpt lat="-28.414321" lon="153.562249">
        <ele>3.525803</ele>
        <time>2026-02-14T08:04:47.000Z</time>
      </trkpt>
      <trkpt lat="-28.42213" lon="153.560093">
        <ele>2.64366</ele>
        <time>2026-02-14T08:06:16.000Z</time>
      </trkpt>
      <trkpt lat="-28.431457" lon="153.55796">
        <ele>2.770548</ele>
        <time>2026-02-14T08:08:02.000Z</time>
      </trkpt>
      <trkpt lat="-28.432685" lon="153.557629">
        <ele>2.576391</ele>
        <time>2026-02-14T08:08:16.000Z</time>
      </trkpt>
      <trkpt lat="-28.434336" lon="153.557127">
        <ele>2.440195</ele>
        <time>2026-02-14T08:08:35.000Z</time>
      </trkpt>
      <trkpt lat="-28.437103" lon="153.555708">
        <ele>2.774927</ele>
        <time>2026-02-14T08:09:09.000Z</time>
      </trkpt>
      <trkpt lat="-28.437255" lon="153.555618">
        <ele>2.746153</ele>
        <time>2026-02-14T08:09:11.000Z</time>
      </trkpt>
      <trkpt lat="-28.437512" lon="153.555501">
        <ele>2.70309</ele>
        <time>2026-02-14T08:09:14.000Z</time>
      </trkpt>
      <trkpt lat="-28.438045" lon="153.555307">
        <ele>2.61371</ele>
        <time>2026-02-14T08:09:20.000Z</time>
      </trkpt>
      <trkpt lat="-28.438725" lon="153.555109">
        <ele>2.517787</ele>
        <time>2026-02-14T08:09:28.000Z</time>
      </trkpt>
      <trkpt lat="-28.44217" lon="153.554298">
        <ele>2.467855</ele>
        <time>2026-02-14T08:10:07.000Z</time>
      </trkpt>
      <trkpt lat="-28.442522" lon="153.554427">
        <ele>2.510753</ele>
        <time>2026-02-14T08:10:11.000Z</time>
      </trkpt>
      <trkpt lat="-28.443458" lon="153.554654">
        <ele>2.621995</ele>
        <time>2026-02-14T08:10:22.000Z</time>
      </trkpt>
      <trkpt lat="-28.444804" lon="153.554952">
        <ele>2.967836</ele>
        <time>2026-02-14T08:10:37.000Z</time>
      </trkpt>
      <trkpt lat="-28.445218" lon="153.555028">
        <ele>3.099101</ele>
        <time>2026-02-14T08:10:42.000Z</time>
      </trkpt>
      <trkpt lat="-28.445582" lon="153.555039">
        <ele>3.215094</ele>
        <time>2026-02-14T08:10:46.000Z</time>
      </trkpt>
      <trkpt lat="-28.446618" lon="153.55484">
        <ele>3.217883</ele>
        <time>2026-02-14T08:10:58.000Z</time>
      </trkpt>
      <trkpt lat="-28.448287" lon="153.554555">
        <ele>3.272367</ele>
        <time>2026-02-14T08:11:17.000Z</time>
      </trkpt>
      <trkpt lat="-28.448433" lon="153.55453">
        <ele>3.284</ele>
        <time>2026-02-14T08:11:19.000Z</time>
      </trkpt>
      <trkpt lat="-28.450648" lon="153.554197">
        <ele>3.849333</ele>
        <time>2026-02-14T08:11:44.000Z</time>
      </trkpt>
      <trkpt lat="-28.453032" lon="153.553834">
        <ele>4.699399</ele>
        <time>2026-02-14T08:12:11.000Z</time>
      </trkpt>
      <trkpt lat="-28.45661" lon="153.553276">
        <ele>4.10264</ele>
        <time>2026-02-14T08:12:51.000Z</time>
      </trkpt>
      <trkpt lat="-28.456874" lon="153.553179">
        <ele>3.936617</ele>
        <time>2026-02-14T08:12:54.000Z</time>
      </trkpt>
      <trkpt lat="-28.456961" lon="153.553088">
        <ele>3.856975</ele>
        <time>2026-02-14T08:12:55.000Z</time>
      </trkpt>
      <trkpt lat="-28.457076" lon="153.552916">
        <ele>3.736186</ele>
        <time>2026-02-14T08:12:57.000Z</time>
      </trkpt>
      <trkpt lat="-28.457109" lon="153.55266">
        <ele>3.599809</ele>
        <time>2026-02-14T08:13:00.000Z</time>
      </trkpt>
      <trkpt lat="-28.457081" lon="153.552579">
        <ele>3.551693</ele>
        <time>2026-02-14T08:13:01.000Z</time>
      </trkpt>
      <trkpt lat="-28.457005" lon="153.552111">
        <ele>3.284146</ele>
        <time>2026-02-14T08:13:06.000Z</time>
      </trkpt>
      <trkpt lat="-28.456993" lon="153.551965">
        <ele>3.210783</ele>
        <time>2026-02-14T08:13:07.000Z</time>
      </trkpt>
      <trkpt lat="-28.456911" lon="153.551445">
        <ele>3.242305</ele>
        <time>2026-02-14T08:13:12.000Z</time>
      </trkpt>
      <trkpt lat="-28.455755" lon="153.542905">
        <ele>5.036555</ele>
        <time>2026-02-14T08:14:36.000Z</time>
      </trkpt>
      <trkpt lat="-28.455455" lon="153.540746">
        <ele>5.011893</ele>
        <time>2026-02-14T08:14:57.000Z</time>
      </trkpt>
      <trkpt lat="-28.454836" lon="153.53622">
        <ele>4.244692</ele>
        <time>2026-02-14T08:15:42.000Z</time>
      </trkpt>
      <trkpt lat="-28.45466" lon="153.535683">
        <ele>4.210815</ele>
        <time>2026-02-14T08:15:48.000Z</time>
      </trkpt>
      <trkpt lat="-28.454089" lon="153.534879">
        <ele>4.827312</ele>
        <time>2026-02-14T08:15:58.000Z</time>
      </trkpt>
      <trkpt lat="-28.453813" lon="153.534509">
        <ele>5.124238</ele>
        <time>2026-02-14T08:16:03.000Z</time>
      </trkpt>
      <trkpt lat="-28.453319" lon="153.53309">
        <ele>6.148324</ele>
        <time>2026-02-14T08:16:18.000Z</time>
      </trkpt>
      <trkpt lat="-28.453286" lon="153.532512">
        <ele>6.556394</ele>
        <time>2026-02-14T08:16:24.000Z</time>
      </trkpt>
      <trkpt lat="-28.45336" lon="153.532143">
        <ele>6.821426</ele>
        <time>2026-02-14T08:16:28.000Z</time>
      </trkpt>
      <trkpt lat="-28.453626" lon="153.531685">
        <ele>6.048668</ele>
        <time>2026-02-14T08:16:33.000Z</time>
      </trkpt>
      <trkpt lat="-28.454047" lon="153.530453">
        <ele>3.949662</ele>
        <time>2026-02-14T08:16:46.000Z</time>
      </trkpt>
      <trkpt lat="-28.454426" lon="153.529638">
        <ele>3.245976</ele>
        <time>2026-02-14T08:16:55.000Z</time>
      </trkpt>
      <trkpt lat="-28.454775" lon="153.529126">
        <ele>2.903006</ele>
        <time>2026-02-14T08:17:01.000Z</time>
      </trkpt>
      <trkpt lat="-28.455354" lon="153.528609">
        <ele>2.67431</ele>
        <time>2026-02-14T08:17:09.000Z</time>
      </trkpt>
      <trkpt lat="-28.457083" lon="153.527124">
        <ele>5.697214</ele>
        <time>2026-02-14T08:17:33.000Z</time>
      </trkpt>
      <trkpt lat="-28.457181" lon="153.52704">
        <ele>6.061514</ele>
        <time>2026-02-14T08:17:34.000Z</time>
      </trkpt>
      <trkpt lat="-28.457436" lon="153.526794">
        <ele>6.974302</ele>
        <time>2026-02-14T08:17:38.000Z</time>
      </trkpt>
      <trkpt lat="-28.457671" lon="153.526344">
        <ele>8.290548</ele>
        <time>2026-02-14T08:17:43.000Z</time>
      </trkpt>
      <trkpt lat="-28.457885" lon="153.525714">
        <ele>9.557282</ele>
        <time>2026-02-14T08:17:50.000Z</time>
      </trkpt>
      <trkpt lat="-28.457966" lon="153.525337">
        <ele>9.901046</ele>
        <time>2026-02-14T08:17:54.000Z</time>
      </trkpt>
      <trkpt lat="-28.45813" lon="153.524894">
        <ele>10.346396</ele>
        <time>2026-02-14T08:17:59.000Z</time>
      </trkpt>
      <trkpt lat="-28.458416" lon="153.524277">
        <ele>10.97514</ele>
        <time>2026-02-14T08:18:06.000Z</time>
      </trkpt>
      <trkpt lat="-28.458525" lon="153.523931">
        <ele>11.339704</ele>
        <time>2026-02-14T08:18:10.000Z</time>
      </trkpt>
      <trkpt lat="-28.458552" lon="153.523518">
        <ele>11.789657</ele>
        <time>2026-02-14T08:18:14.000Z</time>
      </trkpt>
      <trkpt lat="-28.458467" lon="153.523177">
        <ele>12.1906</ele>
        <time>2026-02-14T08:18:17.000Z</time>
      </trkpt>
      <trkpt lat="-28.458009" lon="153.522062">
        <ele>13.477723</ele>
        <time>2026-02-14T08:18:29.000Z</time>
      </trkpt>
      <trkpt lat="-28.45796" lon="153.521888">
        <ele>13.528716</ele>
        <time>2026-02-14T08:18:31.000Z</time>
      </trkpt>
      <trkpt lat="-28.457938" lon="153.521712">
        <ele>13.577184</ele>
        <time>2026-02-14T08:18:33.000Z</time>
      </trkpt>
      <trkpt lat="-28.457943" lon="153.521471">
        <ele>13.639926</ele>
        <time>2026-02-14T08:18:35.000Z</time>
      </trkpt>
      <trkpt lat="-28.458219" lon="153.520584">
        <ele>13.890207</ele>
        <time>2026-02-14T08:18:44.000Z</time>
      </trkpt>
      <trkpt lat="-28.457948" lon="153.521463">
        <ele>13.593501</ele>
        <time>2026-02-14T08:18:53.000Z</time>
      </trkpt>
      <trkpt lat="-28.457936" lon="153.5217">
        <ele>13.412949</ele>
        <time>2026-02-14T08:18:55.000Z</time>
      </trkpt>
      <trkpt lat="-28.457948" lon="153.521881">
        <ele>13.273532</ele>
        <time>2026-02-14T08:18:57.000Z</time>
      </trkpt>
      <trkpt lat="-28.458" lon="153.522077">
        <ele>13.126872</ele>
        <time>2026-02-14T08:18:59.000Z</time>
      </trkpt>
      <trkpt lat="-28.458457" lon="153.523163">
        <ele>12.204625</ele>
        <time>2026-02-14T08:19:11.000Z</time>
      </trkpt>
      <trkpt lat="-28.45856" lon="153.523513">
        <ele>11.934279</ele>
        <time>2026-02-14T08:19:15.000Z</time>
      </trkpt>
      <trkpt lat="-28.458528" lon="153.523916">
        <ele>11.630888</ele>
        <time>2026-02-14T08:19:19.000Z</time>
      </trkpt>
      <trkpt lat="-28.458415" lon="153.524277">
        <ele>11.352526</ele>
        <time>2026-02-14T08:19:23.000Z</time>
      </trkpt>
      <trkpt lat="-28.458128" lon="153.524883">
        <ele>10.710879</ele>
        <time>2026-02-14T08:19:30.000Z</time>
      </trkpt>
      <trkpt lat="-28.457969" lon="153.525352">
        <ele>9.774795</ele>
        <time>2026-02-14T08:19:35.000Z</time>
      </trkpt>
      <trkpt lat="-28.457885" lon="153.52572">
        <ele>9.052256</ele>
        <time>2026-02-14T08:19:39.000Z</time>
      </trkpt>
      <trkpt lat="-28.457664" lon="153.526328">
        <ele>7.782915</ele>
        <time>2026-02-14T08:19:45.000Z</time>
      </trkpt>
      <trkpt lat="-28.457426" lon="153.526803">
        <ele>6.784964</ele>
        <time>2026-02-14T08:19:50.000Z</time>
      </trkpt>
      <trkpt lat="-28.457181" lon="153.527038">
        <ele>6.128745</ele>
        <time>2026-02-14T08:19:54.000Z</time>
      </trkpt>
      <trkpt lat="-28.457082" lon="153.527125">
        <ele>5.866845</ele>
        <time>2026-02-14T08:19:55.000Z</time>
      </trkpt>
      <trkpt lat="-28.455365" lon="153.528599">
        <ele>2.910741</ele>
        <time>2026-02-14T08:20:19.000Z</time>
      </trkpt>
      <trkpt lat="-28.454774" lon="153.529137">
        <ele>2.525567</ele>
        <time>2026-02-14T08:20:27.000Z</time>
      </trkpt>
      <trkpt lat="-28.454423" lon="153.529625">
        <ele>3.129143</ele>
        <time>2026-02-14T08:20:33.000Z</time>
      </trkpt>
      <trkpt lat="-28.454051" lon="153.530452">
        <ele>4.335874</ele>
        <time>2026-02-14T08:20:42.000Z</time>
      </trkpt>
      <trkpt lat="-28.453638" lon="153.531689">
        <ele>5.708978</ele>
        <time>2026-02-14T08:20:55.000Z</time>
      </trkpt>
      <trkpt lat="-28.453354" lon="153.53213">
        <ele>6.138537</ele>
        <time>2026-02-14T08:21:00.000Z</time>
      </trkpt>
      <trkpt lat="-28.453303" lon="153.532498">
        <ele>6.433241</ele>
        <time>2026-02-14T08:21:04.000Z</time>
      </trkpt>
      <trkpt lat="-28.453334" lon="153.533073">
        <ele>6.584501</ele>
        <time>2026-02-14T08:21:10.000Z</time>
      </trkpt>
      <trkpt lat="-28.453804" lon="153.534507">
        <ele>5.000916</ele>
        <time>2026-02-14T08:21:25.000Z</time>
      </trkpt>
      <trkpt lat="-28.454088" lon="153.53487">
        <ele>4.597617</ele>
        <time>2026-02-14T08:21:30.000Z</time>
      </trkpt>
      <trkpt lat="-28.454666" lon="153.535685">
        <ele>4.380076</ele>
        <time>2026-02-14T08:21:40.000Z</time>
      </trkpt>
      <trkpt lat="-28.454835" lon="153.536223">
        <ele>4.259871</ele>
        <time>2026-02-14T08:21:46.000Z</time>
      </trkpt>
      <trkpt lat="-28.455452" lon="153.540739">
        <ele>5.040314</ele>
        <time>2026-02-14T08:22:31.000Z</time>
      </trkpt>
      <trkpt lat="-28.455757" lon="153.5429">
        <ele>5.06325</ele>
        <time>2026-02-14T08:22:52.000Z</time>
      </trkpt>
      <trkpt lat="-28.456907" lon="153.551443">
        <ele>3.268863</ele>
        <time>2026-02-14T08:24:16.000Z</time>
      </trkpt>
      <trkpt lat="-28.45698" lon="153.551963">
        <ele>3.428441</ele>
        <time>2026-02-14T08:24:21.000Z</time>
      </trkpt>
      <trkpt lat="-28.457017" lon="153.5521">
        <ele>3.46864</ele>
        <time>2026-02-14T08:24:22.000Z</time>
      </trkpt>
      <trkpt lat="-28.457086" lon="153.552577">
        <ele>3.615253</ele>
        <time>2026-02-14T08:24:27.000Z</time>
      </trkpt>
      <trkpt lat="-28.457106" lon="153.552659">
        <ele>3.641616</ele>
        <time>2026-02-14T08:24:28.000Z</time>
      </trkpt>
      <trkpt lat="-28.457074" lon="153.552912">
        <ele>3.739182</ele>
        <time>2026-02-14T08:24:30.000Z</time>
      </trkpt>
      <trkpt lat="-28.456972" lon="153.553096">
        <ele>3.827253</ele>
        <time>2026-02-14T08:24:32.000Z</time>
      </trkpt>
      <trkpt lat="-28.456866" lon="153.553181">
        <ele>3.885334</ele>
        <time>2026-02-14T08:24:33.000Z</time>
      </trkpt>
      <trkpt lat="-28.456623" lon="153.553286">
        <ele>4.006403</ele>
        <time>2026-02-14T08:24:36.000Z</time>
      </trkpt>
      <trkpt lat="-28.453044" lon="153.553828">
        <ele>4.622783</ele>
        <time>2026-02-14T08:25:16.000Z</time>
      </trkpt>
      <trkpt lat="-28.450632" lon="153.554184">
        <ele>3.850459</ele>
        <time>2026-02-14T08:25:43.000Z</time>
      </trkpt>
      <trkpt lat="-28.448442" lon="153.554535">
        <ele>3.196541</ele>
        <time>2026-02-14T08:26:08.000Z</time>
      </trkpt>
      <trkpt lat="-28.448285" lon="153.554563">
        <ele>3.202599</ele>
        <time>2026-02-14T08:26:10.000Z</time>
      </trkpt>
      <trkpt lat="-28.446614" lon="153.554828">
        <ele>3.257606</ele>
        <time>2026-02-14T08:26:29.000Z</time>
      </trkpt>
      <trkpt lat="-28.445591" lon="153.555054">
        <ele>3.132685</ele>
        <time>2026-02-14T08:26:41.000Z</time>
      </trkpt>
      <trkpt lat="-28.445213" lon="153.555042">
        <ele>3.088672</ele>
        <time>2026-02-14T08:26:45.000Z</time>
      </trkpt>
      <trkpt lat="-28.444806" lon="153.554948">
        <ele>3.014818</ele>
        <time>2026-02-14T08:26:50.000Z</time>
      </trkpt>
      <trkpt lat="-28.443459" lon="153.554656">
        <ele>2.593029</ele>
        <time>2026-02-14T08:27:05.000Z</time>
      </trkpt>
      <trkpt lat="-28.442526" lon="153.554435">
        <ele>2.491945</ele>
        <time>2026-02-14T08:27:16.000Z</time>
      </trkpt>
      <trkpt lat="-28.442174" lon="153.554306">
        <ele>2.487005</ele>
        <time>2026-02-14T08:27:20.000Z</time>
      </trkpt>
      <trkpt lat="-28.43872" lon="153.555123">
        <ele>2.568632</ele>
        <time>2026-02-14T08:27:59.000Z</time>
      </trkpt>
      <trkpt lat="-28.438044" lon="153.555306">
        <ele>2.673544</ele>
        <time>2026-02-14T08:28:07.000Z</time>
      </trkpt>
      <trkpt lat="-28.437499" lon="153.555501">
        <ele>2.700744</ele>
        <time>2026-02-14T08:28:13.000Z</time>
      </trkpt>
      <trkpt lat="-28.437253" lon="153.555616">
        <ele>2.703358</ele>
        <time>2026-02-14T08:28:16.000Z</time>
      </trkpt>
      <trkpt lat="-28.437087" lon="153.555703">
        <ele>2.705096</ele>
        <time>2026-02-14T08:28:18.000Z</time>
      </trkpt>
      <trkpt lat="-28.434336" lon="153.557123">
        <ele>2.408501</ele>
        <time>2026-02-14T08:28:52.000Z</time>
      </trkpt>
      <trkpt lat="-28.432702" lon="153.557638">
        <ele>2.542331</ele>
        <time>2026-02-14T08:29:11.000Z</time>
      </trkpt>
      <trkpt lat="-28.431455" lon="153.557949">
        <ele>2.789263</ele>
        <time>2026-02-14T08:29:25.000Z</time>
      </trkpt>
      <trkpt lat="-28.422135" lon="153.560095">
        <ele>2.556791</ele>
        <time>2026-02-14T08:31:11.000Z</time>
      </trkpt>
      <trkpt lat="-28.414331" lon="153.562251">
        <ele>3.468476</ele>
        <time>2026-02-14T08:32:40.000Z</time>
      </trkpt>
      <trkpt lat="-28.411892" lon="153.562913">
        <ele>3.094504</ele>
        <time>2026-02-14T08:33:08.000Z</time>
      </trkpt>
      <trkpt lat="-28.411751" lon="153.56296">
        <ele>3.056078</ele>
        <time>2026-02-14T08:33:10.000Z</time>
      </trkpt>
      <trkpt lat="-28.411643" lon="153.562982">
        <ele>3.023767</ele>
        <time>2026-02-14T08:33:11.000Z</time>
      </trkpt>
      <trkpt lat="-28.410934" lon="153.563181">
        <ele>2.790834</ele>
        <time>2026-02-14T08:33:19.000Z</time>
      </trkpt>
      <trkpt lat="-28.409679" lon="153.563535">
        <ele>2.548008</ele>
        <time>2026-02-14T08:33:33.000Z</time>
      </trkpt>
      <trkpt lat="-28.409489" lon="153.563566">
        <ele>2.563365</ele>
        <time>2026-02-14T08:33:35.000Z</time>
      </trkpt>
      <trkpt lat="-28.408659" lon="153.563677">
        <ele>2.62931</ele>
        <time>2026-02-14T08:33:44.000Z</time>
      </trkpt>
      <trkpt lat="-28.407528" lon="153.563764">
        <ele>2.680616</ele>
        <time>2026-02-14T08:33:57.000Z</time>
      </trkpt>
      <trkpt lat="-28.406244" lon="153.56393">
        <ele>2.684542</ele>
        <time>2026-02-14T08:34:11.000Z</time>
      </trkpt>
      <trkpt lat="-28.405574" lon="153.563967">
        <ele>2.61342</ele>
        <time>2026-02-14T08:34:18.000Z</time>
      </trkpt>
      <trkpt lat="-28.404978" lon="153.56404">
        <ele>2.549393</ele>
        <time>2026-02-14T08:34:25.000Z</time>
      </trkpt>
      <trkpt lat="-28.404415" lon="153.56415">
        <ele>2.524905</ele>
        <time>2026-02-14T08:34:31.000Z</time>
      </trkpt>
      <trkpt lat="-28.400998" lon="153.565033">
        <ele>2.578896</ele>
        <time>2026-02-14T08:35:10.000Z</time>
      </trkpt>
      <trkpt lat="-28.399287" lon="153.56545">
        <ele>2.577667</ele>
        <time>2026-02-14T08:35:29.000Z</time>
      </trkpt>
      <trkpt lat="-28.39901" lon="153.565507">
        <ele>2.625397</ele>
        <time>2026-02-14T08:35:32.000Z</time>
      </trkpt>
      <trkpt lat="-28.398485" lon="153.565635">
        <ele>2.715662</ele>
        <time>2026-02-14T08:35:38.000Z</time>
      </trkpt>
      <trkpt lat="-28.397531" lon="153.565909">
        <ele>2.907549</ele>
        <time>2026-02-14T08:35:49.000Z</time>
      </trkpt>
      <trkpt lat="-28.397516" lon="153.565899">
        <ele>2.914645</ele>
        <time>2026-02-14T08:35:49.000Z</time>
      </trkpt>
      <trkpt lat="-28.396386" lon="153.566219">
        <ele>3.299809</ele>
        <time>2026-02-14T08:36:02.000Z</time>
      </trkpt>
      <trkpt lat="-28.394351" lon="153.566899">
        <ele>3.810736</ele>
        <time>2026-02-14T08:36:26.000Z</time>
      </trkpt>
      <trkpt lat="-28.393822" lon="153.567094">
        <ele>3.466859</ele>
        <time>2026-02-14T08:36:32.000Z</time>
      </trkpt>
      <trkpt lat="-28.393342" lon="153.567221">
        <ele>3.052933</ele>
        <time>2026-02-14T08:36:37.000Z</time>
      </trkpt>
      <trkpt lat="-28.392998" lon="153.567224">
        <ele>2.747559</ele>
        <time>2026-02-14T08:36:41.000Z</time>
      </trkpt>
      <trkpt lat="-28.392581" lon="153.56709">
        <ele>2.372762</ele>
        <time>2026-02-14T08:36:46.000Z</time>
      </trkpt>
      <trkpt lat="-28.392275" lon="153.566802">
        <ele>2.202818</ele>
        <time>2026-02-14T08:36:50.000Z</time>
      </trkpt>
      <trkpt lat="-28.392205" lon="153.566735">
        <ele>2.174806</ele>
        <time>2026-02-14T08:36:51.000Z</time>
      </trkpt>
      <trkpt lat="-28.391459" lon="153.565881">
        <ele>1.886811</ele>
        <time>2026-02-14T08:37:03.000Z</time>
      </trkpt>
      <trkpt lat="-28.3912" lon="153.565567">
        <ele>1.78435125305</ele>
        <time>2026-02-14T08:37:07.000Z</time>
      </trkpt>
      <trkpt lat="-28.391062" lon="153.565354">
        <ele>1.72138285968</ele>
        <time>2026-02-14T08:37:10.000Z</time>
      </trkpt>
      <trkpt lat="-28.391056" lon="153.565306">
        <ele>1.7098422551</ele>
        <time>2026-02-14T08:37:10.000Z</time>
      </trkpt>
      <trkpt lat="-28.391014" lon="153.565253">
        <ele>1.69286237997</ele>
        <time>2026-02-14T08:37:11.000Z</time>
      </trkpt>
      <trkpt lat="-28.390962" lon="153.565243">
        <ele>1.67859211361</ele>
        <time>2026-02-14T08:37:12.000Z</time>
      </trkpt>
      <trkpt lat="-28.390928" lon="153.565264">
        <ele>1.66812191634</ele>
        <time>2026-02-14T08:37:12.000Z</time>
      </trkpt>
      <trkpt lat="-28.390707" lon="153.56528">
        <ele>1.60820183744</ele>
        <time>2026-02-14T08:37:14.000Z</time>
      </trkpt>
      <trkpt lat="-28.390075" lon="153.565289">
        <ele>1.43717975607</ele>
        <time>2026-02-14T08:37:21.000Z</time>
      </trkpt>
      <trkpt lat="-28.389557" lon="153.565344">
        <ele>1.2964074602</ele>
        <time>2026-02-14T08:37:27.000Z</time>
      </trkpt>
      <trkpt lat="-28.389335" lon="153.565387">
        <ele>1.23547211479</ele>
        <time>2026-02-14T08:37:30.000Z</time>
      </trkpt>
      <trkpt lat="-28.389338" lon="153.565386">
        <ele>1.2346261821</ele>
        <time>2026-02-14T08:37:30.000Z</time>
      </trkpt>
    </trkseg>
  </trk>
</gpx>

<!--
Performance optimized by W3 Total Cache. Learn more: https://www.boldgrid.com/w3-total-cache/?utm_source=w3tc&utm_medium=footer_comment&utm_campaign=free_plugin

Page Caching using Disk: Enhanced{w3tc_pagecache_reject_reason} 

Served from: www.aquabike.world @ 2026-05-10 06:56:35 by W3 Total Cache
-->